sensor_id;sensor_type;location;lat;lon;timestamp;P1;durP1;ratioP1;P2;durP2;ratioP2
50301;SDS011;36550;50.472;19.744;2024-02-23T00:02:40;2.90;;;1.50;;
50301;SDS011;36550;50.472;19.744;2024-02-23T00:05:24;2.60;;;1.10;;
50301;SDS011;36550;50.472;19.744;2024-02-23T00:08:08;2.80;;;1.40;;
50301;SDS011;36550;50.472;19.744;2024-02-23T00:10:55;2.70;;;1.40;;
50301;SDS011;36550;50.472;19.744;2024-02-23T00:13:39;2.60;;;1.40;;
50301;SDS011;36550;50.472;19.744;2024-02-23T00:16:23;2.90;;;1.40;;
50301;SDS011;36550;50.472;19.744;2024-02-23T00:19:08;2.90;;;1.40;;
50301;SDS011;36550;50.472;19.744;2024-02-23T00:21:55;2.80;;;1.10;;
50301;SDS011;36550;50.472;19.744;2024-02-23T00:24:40;2.70;;;1.20;;
50301;SDS011;36550;50.472;19.744;2024-02-23T00:27:24;2.50;;;1.20;;
50301;SDS011;36550;50.472;19.744;2024-02-23T00:30:08;2.60;;;1.20;;
50301;SDS011;36550;50.472;19.744;2024-02-23T00:32:52;3.20;;;1.20;;
50301;SDS011;36550;50.472;19.744;2024-02-23T00:35:37;2.80;;;1.30;;
50301;SDS011;36550;50.472;19.744;2024-02-23T00:38:21;2.50;;;1.20;;
50301;SDS011;36550;50.472;19.744;2024-02-23T00:41:05;3.30;;;1.40;;
50301;SDS011;36550;50.472;19.744;2024-02-23T00:43:50;2.90;;;1.50;;
50301;SDS011;36550;50.472;19.744;2024-02-23T00:46:34;3.00;;;1.30;;
50301;SDS011;36550;50.472;19.744;2024-02-23T00:49:18;2.40;;;1.30;;
50301;SDS011;36550;50.472;19.744;2024-02-23T00:52:03;2.50;;;1.50;;
50301;SDS011;36550;50.472;19.744;2024-02-23T00:54:47;3.40;;;1.60;;
50301;SDS011;36550;50.472;19.744;2024-02-23T00:57:31;2.60;;;1.50;;
50301;SDS011;36550;50.472;19.744;2024-02-23T01:00:16;4.10;;;1.40;;
50301;SDS011;36550;50.472;19.744;2024-02-23T01:03:01;3.50;;;1.40;;
50301;SDS011;36550;50.472;19.744;2024-02-23T01:05:45;3.20;;;1.40;;
50301;SDS011;36550;50.472;19.744;2024-02-23T01:08:29;5.20;;;1.70;;
50301;SDS011;36550;50.472;19.744;2024-02-23T01:11:13;4.30;;;1.60;;
50301;SDS011;36550;50.472;19.744;2024-02-23T01:13:57;3.30;;;1.70;;
50301;SDS011;36550;50.472;19.744;2024-02-23T01:16:41;2.20;;;1.30;;
50301;SDS011;36550;50.472;19.744;2024-02-23T01:19:26;2.10;;;1.20;;
50301;SDS011;36550;50.472;19.744;2024-02-23T01:22:10;2.30;;;1.50;;
50301;SDS011;36550;50.472;19.744;2024-02-23T01:24:54;2.50;;;1.50;;
50301;SDS011;36550;50.472;19.744;2024-02-23T01:27:38;2.70;;;1.50;;
50301;SDS011;36550;50.472;19.744;2024-02-23T01:30:23;4.70;;;1.80;;
50301;SDS011;36550;50.472;19.744;2024-02-23T01:33:07;4.20;;;1.60;;
50301;SDS011;36550;50.472;19.744;2024-02-23T01:35:52;2.70;;;1.60;;
50301;SDS011;36550;50.472;19.744;2024-02-23T01:38:36;3.00;;;1.70;;
50301;SDS011;36550;50.472;19.744;2024-02-23T01:41:20;2.90;;;1.70;;
50301;SDS011;36550;50.472;19.744;2024-02-23T01:44:04;2.70;;;1.60;;
50301;SDS011;36550;50.472;19.744;2024-02-23T01:46:49;4.10;;;1.80;;
50301;SDS011;36550;50.472;19.744;2024-02-23T01:49:34;3.90;;;1.80;;
50301;SDS011;36550;50.472;19.744;2024-02-23T01:52:19;3.50;;;1.90;;
50301;SDS011;36550;50.472;19.744;2024-02-23T01:55:05;5.00;;;1.70;;
50301;SDS011;36550;50.472;19.744;2024-02-23T01:57:49;3.10;;;1.70;;
50301;SDS011;36550;50.472;19.744;2024-02-23T02:00:34;3.80;;;1.80;;
50301;SDS011;36550;50.472;19.744;2024-02-23T02:03:19;2.50;;;1.60;;
50301;SDS011;36550;50.472;19.744;2024-02-23T02:06:07;3.90;;;1.90;;
50301;SDS011;36550;50.472;19.744;2024-02-23T02:08:53;3.70;;;1.70;;
50301;SDS011;36550;50.472;19.744;2024-02-23T02:11:47;2.60;;;1.30;;
50301;SDS011;36550;50.472;19.744;2024-02-23T02:14:32;3.10;;;1.60;;
50301;SDS011;36550;50.472;19.744;2024-02-23T02:17:17;2.20;;;1.40;;
50301;SDS011;36550;50.472;19.744;2024-02-23T02:20:02;3.10;;;1.60;;
50301;SDS011;36550;50.472;19.744;2024-02-23T02:22:48;3.40;;;1.60;;
50301;SDS011;36550;50.472;19.744;2024-02-23T02:25:32;3.10;;;1.50;;
50301;SDS011;36550;50.472;19.744;2024-02-23T02:28:16;3.10;;;1.80;;
50301;SDS011;36550;50.472;19.744;2024-02-23T02:31:01;4.40;;;1.90;;
50301;SDS011;36550;50.472;19.744;2024-02-23T02:33:45;3.50;;;1.70;;
50301;SDS011;36550;50.472;19.744;2024-02-23T02:36:29;3.30;;;1.70;;
50301;SDS011;36550;50.472;19.744;2024-02-23T02:39:13;2.40;;;1.50;;
50301;SDS011;36550;50.472;19.744;2024-02-23T02:41:57;3.20;;;1.50;;
50301;SDS011;36550;50.472;19.744;2024-02-23T02:44:41;2.70;;;1.60;;
50301;SDS011;36550;50.472;19.744;2024-02-23T02:47:25;3.50;;;1.70;;
50301;SDS011;36550;50.472;19.744;2024-02-23T02:50:09;3.30;;;1.80;;
50301;SDS011;36550;50.472;19.744;2024-02-23T02:52:53;3.90;;;1.70;;
50301;SDS011;36550;50.472;19.744;2024-02-23T02:55:41;3.20;;;1.90;;
50301;SDS011;36550;50.472;19.744;2024-02-23T02:58:26;3.60;;;1.80;;
50301;SDS011;36550;50.472;19.744;2024-02-23T03:01:10;4.60;;;1.90;;
50301;SDS011;36550;50.472;19.744;2024-02-23T03:03:54;4.00;;;1.60;;
50301;SDS011;36550;50.472;19.744;2024-02-23T03:06:38;2.70;;;1.60;;
50301;SDS011;36550;50.472;19.744;2024-02-23T03:09:22;5.20;;;1.80;;
50301;SDS011;36550;50.472;19.744;2024-02-23T03:12:06;3.60;;;1.50;;
50301;SDS011;36550;50.472;19.744;2024-02-23T03:14:51;3.80;;;2.00;;
50301;SDS011;36550;50.472;19.744;2024-02-23T03:17:35;2.70;;;1.60;;
50301;SDS011;36550;50.472;19.744;2024-02-23T03:20:20;4.90;;;1.80;;
50301;SDS011;36550;50.472;19.744;2024-02-23T03:23:04;2.90;;;1.50;;
50301;SDS011;36550;50.472;19.744;2024-02-23T03:25:48;3.40;;;1.70;;
50301;SDS011;36550;50.472;19.744;2024-02-23T03:41:58;3.40;;;1.60;;
50301;SDS011;36550;50.472;19.744;2024-02-23T03:44:42;2.60;;;1.30;;
50301;SDS011;36550;50.472;19.744;2024-02-23T03:47:26;3.60;;;1.60;;
50301;SDS011;36550;50.472;19.744;2024-02-23T03:50:10;4.50;;;1.70;;
50301;SDS011;36550;50.472;19.744;2024-02-23T03:52:54;3.40;;;1.80;;
50301;SDS011;36550;50.472;19.744;2024-02-23T03:55:38;3.50;;;1.80;;
50301;SDS011;36550;50.472;19.744;2024-02-23T03:58:22;2.60;;;1.60;;
50301;SDS011;36550;50.472;19.744;2024-02-23T04:01:06;3.10;;;1.60;;
50301;SDS011;36550;50.472;19.744;2024-02-23T04:03:50;3.00;;;1.60;;
50301;SDS011;36550;50.472;19.744;2024-02-23T04:06:34;3.30;;;1.50;;
50301;SDS011;36550;50.472;19.744;2024-02-23T04:09:18;3.40;;;1.60;;
50301;SDS011;36550;50.472;19.744;2024-02-23T04:12:02;2.60;;;1.70;;
50301;SDS011;36550;50.472;19.744;2024-02-23T04:14:47;2.50;;;1.40;;
50301;SDS011;36550;50.472;19.744;2024-02-23T04:17:31;2.50;;;1.40;;
50301;SDS011;36550;50.472;19.744;2024-02-23T04:20:15;3.20;;;1.60;;
50301;SDS011;36550;50.472;19.744;2024-02-23T04:23:00;2.20;;;1.60;;
50301;SDS011;36550;50.472;19.744;2024-02-23T04:25:44;3.80;;;1.80;;
50301;SDS011;36550;50.472;19.744;2024-02-23T04:28:28;3.20;;;1.90;;
50301;SDS011;36550;50.472;19.744;2024-02-23T04:31:14;4.80;;;2.00;;
50301;SDS011;36550;50.472;19.744;2024-02-23T04:33:58;4.70;;;2.00;;
50301;SDS011;36550;50.472;19.744;2024-02-23T04:36:43;3.70;;;1.90;;
50301;SDS011;36550;50.472;19.744;2024-02-23T04:39:27;4.70;;;2.40;;
50301;SDS011;36550;50.472;19.744;2024-02-23T04:42:11;2.80;;;2.00;;
50301;SDS011;36550;50.472;19.744;2024-02-23T04:44:55;4.70;;;2.20;;
50301;SDS011;36550;50.472;19.744;2024-02-23T04:47:39;4.00;;;2.10;;
50301;SDS011;36550;50.472;19.744;2024-02-23T04:50:24;5.40;;;2.40;;
50301;SDS011;36550;50.472;19.744;2024-02-23T04:53:08;4.10;;;2.50;;
50301;SDS011;36550;50.472;19.744;2024-02-23T04:55:52;5.10;;;2.20;;
50301;SDS011;36550;50.472;19.744;2024-02-23T04:58:36;3.40;;;2.00;;
50301;SDS011;36550;50.472;19.744;2024-02-23T05:01:21;3.90;;;2.10;;
50301;SDS011;36550;50.472;19.744;2024-02-23T05:04:05;4.40;;;2.00;;
50301;SDS011;36550;50.472;19.744;2024-02-23T05:06:50;3.00;;;1.90;;
50301;SDS011;36550;50.472;19.744;2024-02-23T05:09:34;4.60;;;2.30;;
50301;SDS011;36550;50.472;19.744;2024-02-23T05:12:18;3.30;;;1.80;;
50301;SDS011;36550;50.472;19.744;2024-02-23T05:15:02;5.80;;;2.20;;
50301;SDS011;36550;50.472;19.744;2024-02-23T05:17:47;3.90;;;2.50;;
50301;SDS011;36550;50.472;19.744;2024-02-23T05:20:31;4.10;;;1.80;;
50301;SDS011;36550;50.472;19.744;2024-02-23T05:23:15;3.80;;;2.00;;
50301;SDS011;36550;50.472;19.744;2024-02-23T05:26:00;2.90;;;1.90;;
50301;SDS011;36550;50.472;19.744;2024-02-23T05:28:44;3.40;;;2.20;;
50301;SDS011;36550;50.472;19.744;2024-02-23T05:31:43;5.10;;;2.30;;
50301;SDS011;36550;50.472;19.744;2024-02-23T05:34:32;5.80;;;2.60;;
50301;SDS011;36550;50.472;19.744;2024-02-23T05:37:15;4.80;;;2.80;;
50301;SDS011;36550;50.472;19.744;2024-02-23T05:40:00;5.30;;;2.50;;
50301;SDS011;36550;50.472;19.744;2024-02-23T05:42:47;5.50;;;2.50;;
50301;SDS011;36550;50.472;19.744;2024-02-23T05:45:32;5.50;;;2.30;;
50301;SDS011;36550;50.472;19.744;2024-02-23T05:48:16;5.40;;;2.10;;
50301;SDS011;36550;50.472;19.744;2024-02-23T05:51:02;4.10;;;2.30;;
50301;SDS011;36550;50.472;19.744;2024-02-23T05:53:47;4.60;;;2.10;;
50301;SDS011;36550;50.472;19.744;2024-02-23T05:56:30;6.80;;;2.10;;
50301;SDS011;36550;50.472;19.744;2024-02-23T05:59:14;3.80;;;2.20;;
50301;SDS011;36550;50.472;19.744;2024-02-23T06:01:59;5.10;;;2.30;;
50301;SDS011;36550;50.472;19.744;2024-02-23T06:04:42;5.20;;;2.10;;
50301;SDS011;36550;50.472;19.744;2024-02-23T06:07:27;5.80;;;2.10;;
50301;SDS011;36550;50.472;19.744;2024-02-23T06:10:13;4.60;;;2.30;;
50301;SDS011;36550;50.472;19.744;2024-02-23T06:12:57;5.10;;;2.50;;
50301;SDS011;36550;50.472;19.744;2024-02-23T06:15:41;4.40;;;2.10;;
50301;SDS011;36550;50.472;19.744;2024-02-23T06:18:26;4.60;;;2.00;;
50301;SDS011;36550;50.472;19.744;2024-02-23T06:21:14;5.70;;;1.90;;
50301;SDS011;36550;50.472;19.744;2024-02-23T06:23:59;3.50;;;1.60;;
50301;SDS011;36550;50.472;19.744;2024-02-23T06:26:43;4.30;;;1.80;;
50301;SDS011;36550;50.472;19.744;2024-02-23T06:29:27;3.70;;;1.50;;
50301;SDS011;36550;50.472;19.744;2024-02-23T06:32:11;3.60;;;1.90;;
50301;SDS011;36550;50.472;19.744;2024-02-23T06:34:55;3.50;;;1.80;;
50301;SDS011;36550;50.472;19.744;2024-02-23T06:37:40;3.90;;;1.70;;
50301;SDS011;36550;50.472;19.744;2024-02-23T06:40:24;3.80;;;1.60;;
50301;SDS011;36550;50.472;19.744;2024-02-23T06:43:08;4.20;;;1.70;;
50301;SDS011;36550;50.472;19.744;2024-02-23T06:45:52;4.60;;;1.80;;
50301;SDS011;36550;50.472;19.744;2024-02-23T06:48:36;4.10;;;1.90;;
50301;SDS011;36550;50.472;19.744;2024-02-23T06:51:20;4.00;;;2.00;;
50301;SDS011;36550;50.472;19.744;2024-02-23T06:54:05;4.10;;;2.00;;
50301;SDS011;36550;50.472;19.744;2024-02-23T06:56:49;4.30;;;1.90;;
50301;SDS011;36550;50.472;19.744;2024-02-23T06:59:33;3.20;;;1.80;;
50301;SDS011;36550;50.472;19.744;2024-02-23T07:02:17;3.60;;;1.90;;
50301;SDS011;36550;50.472;19.744;2024-02-23T07:05:01;3.40;;;1.70;;
50301;SDS011;36550;50.472;19.744;2024-02-23T07:07:48;3.70;;;2.00;;
50301;SDS011;36550;50.472;19.744;2024-02-23T07:10:32;4.90;;;1.90;;
50301;SDS011;36550;50.472;19.744;2024-02-23T07:13:16;3.50;;;1.90;;
50301;SDS011;36550;50.472;19.744;2024-02-23T07:16:02;5.00;;;2.10;;
50301;SDS011;36550;50.472;19.744;2024-02-23T07:18:46;3.30;;;1.80;;
50301;SDS011;36550;50.472;19.744;2024-02-23T07:21:31;3.70;;;1.80;;
50301;SDS011;36550;50.472;19.744;2024-02-23T07:24:15;4.30;;;2.10;;
50301;SDS011;36550;50.472;19.744;2024-02-23T07:27:00;4.10;;;2.10;;
50301;SDS011;36550;50.472;19.744;2024-02-23T07:29:44;3.30;;;1.80;;
50301;SDS011;36550;50.472;19.744;2024-02-23T07:32:29;3.70;;;1.80;;
50301;SDS011;36550;50.472;19.744;2024-02-23T07:35:14;4.50;;;1.80;;
50301;SDS011;36550;50.472;19.744;2024-02-23T07:37:58;4.30;;;1.70;;
50301;SDS011;36550;50.472;19.744;2024-02-23T07:40:43;4.70;;;1.90;;
50301;SDS011;36550;50.472;19.744;2024-02-23T07:43:28;5.10;;;2.10;;
50301;SDS011;36550;50.472;19.744;2024-02-23T07:46:12;5.00;;;2.40;;
50301;SDS011;36550;50.472;19.744;2024-02-23T07:48:57;3.50;;;2.20;;
50301;SDS011;36550;50.472;19.744;2024-02-23T07:51:41;4.10;;;1.90;;
50301;SDS011;36550;50.472;19.744;2024-02-23T07:54:25;4.60;;;2.20;;
50301;SDS011;36550;50.472;19.744;2024-02-23T07:57:09;3.60;;;1.80;;
50301;SDS011;36550;50.472;19.744;2024-02-23T07:59:53;5.30;;;2.60;;
50301;SDS011;36550;50.472;19.744;2024-02-23T08:02:38;4.60;;;2.30;;
50301;SDS011;36550;50.472;19.744;2024-02-23T08:05:22;5.50;;;2.50;;
50301;SDS011;36550;50.472;19.744;2024-02-23T08:08:07;4.80;;;2.20;;
50301;SDS011;36550;50.472;19.744;2024-02-23T08:10:51;7.10;;;2.50;;
50301;SDS011;36550;50.472;19.744;2024-02-23T08:13:35;4.30;;;2.30;;
50301;SDS011;36550;50.472;19.744;2024-02-23T08:16:19;3.90;;;2.00;;
50301;SDS011;36550;50.472;19.744;2024-02-23T08:19:04;5.40;;;2.00;;
50301;SDS011;36550;50.472;19.744;2024-02-23T08:21:48;4.60;;;2.10;;
50301;SDS011;36550;50.472;19.744;2024-02-23T08:24:33;3.10;;;1.80;;
50301;SDS011;36550;50.472;19.744;2024-02-23T08:27:17;3.60;;;2.00;;
50301;SDS011;36550;50.472;19.744;2024-02-23T08:30:00;2.90;;;1.60;;
50301;SDS011;36550;50.472;19.744;2024-02-23T08:32:45;5.30;;;2.20;;
50301;SDS011;36550;50.472;19.744;2024-02-23T08:35:29;3.40;;;1.60;;
50301;SDS011;36550;50.472;19.744;2024-02-23T08:38:13;3.50;;;1.90;;
50301;SDS011;36550;50.472;19.744;2024-02-23T08:40:58;3.70;;;1.90;;
50301;SDS011;36550;50.472;19.744;2024-02-23T08:43:42;4.80;;;1.90;;
50301;SDS011;36550;50.472;19.744;2024-02-23T08:46:26;3.50;;;1.90;;
50301;SDS011;36550;50.472;19.744;2024-02-23T08:49:11;2.80;;;1.70;;
50301;SDS011;36550;50.472;19.744;2024-02-23T08:51:56;3.40;;;1.70;;
50301;SDS011;36550;50.472;19.744;2024-02-23T08:54:42;2.70;;;1.70;;
50301;SDS011;36550;50.472;19.744;2024-02-23T08:57:27;4.80;;;2.00;;
50301;SDS011;36550;50.472;19.744;2024-02-23T09:00:12;4.10;;;2.00;;
50301;SDS011;36550;50.472;19.744;2024-02-23T09:02:58;3.30;;;1.60;;
50301;SDS011;36550;50.472;19.744;2024-02-23T09:05:42;3.30;;;1.80;;
50301;SDS011;36550;50.472;19.744;2024-02-23T09:08:26;3.60;;;1.90;;
50301;SDS011;36550;50.472;19.744;2024-02-23T09:11:11;3.00;;;1.80;;
50301;SDS011;36550;50.472;19.744;2024-02-23T09:13:57;2.80;;;1.50;;
50301;SDS011;36550;50.472;19.744;2024-02-23T09:16:41;4.70;;;1.70;;
50301;SDS011;36550;50.472;19.744;2024-02-23T09:19:25;3.30;;;1.70;;
50301;SDS011;36550;50.472;19.744;2024-02-23T09:22:09;5.40;;;2.20;;
50301;SDS011;36550;50.472;19.744;2024-02-23T09:24:53;3.70;;;2.00;;
50301;SDS011;36550;50.472;19.744;2024-02-23T09:27:39;4.80;;;2.30;;
50301;SDS011;36550;50.472;19.744;2024-02-23T09:30:26;4.70;;;2.10;;
50301;SDS011;36550;50.472;19.744;2024-02-23T09:33:10;4.70;;;2.00;;
50301;SDS011;36550;50.472;19.744;2024-02-23T09:35:54;4.40;;;1.90;;
50301;SDS011;36550;50.472;19.744;2024-02-23T09:38:39;4.80;;;2.10;;
50301;SDS011;36550;50.472;19.744;2024-02-23T09:41:23;3.50;;;1.90;;
50301;SDS011;36550;50.472;19.744;2024-02-23T09:44:07;4.10;;;2.10;;
50301;SDS011;36550;50.472;19.744;2024-02-23T09:46:53;4.30;;;2.00;;
50301;SDS011;36550;50.472;19.744;2024-02-23T09:49:37;5.40;;;2.30;;
50301;SDS011;36550;50.472;19.744;2024-02-23T09:52:24;3.80;;;2.10;;
50301;SDS011;36550;50.472;19.744;2024-02-23T09:55:08;3.10;;;2.00;;
50301;SDS011;36550;50.472;19.744;2024-02-23T09:57:55;4.50;;;1.70;;
50301;SDS011;36550;50.472;19.744;2024-02-23T10:00:42;3.10;;;1.70;;
50301;SDS011;36550;50.472;19.744;2024-02-23T10:03:27;2.80;;;1.60;;
50301;SDS011;36550;50.472;19.744;2024-02-23T10:06:15;4.90;;;1.70;;
50301;SDS011;36550;50.472;19.744;2024-02-23T10:08:59;2.70;;;1.50;;
50301;SDS011;36550;50.472;19.744;2024-02-23T10:11:43;3.10;;;1.70;;
50301;SDS011;36550;50.472;19.744;2024-02-23T10:14:27;3.00;;;1.30;;
50301;SDS011;36550;50.472;19.744;2024-02-23T10:17:12;4.30;;;1.40;;
50301;SDS011;36550;50.472;19.744;2024-02-23T10:19:56;4.20;;;1.60;;
50301;SDS011;36550;50.472;19.744;2024-02-23T10:22:43;3.50;;;1.70;;
50301;SDS011;36550;50.472;19.744;2024-02-23T10:25:28;2.40;;;1.40;;
50301;SDS011;36550;50.472;19.744;2024-02-23T10:28:13;2.30;;;1.20;;
50301;SDS011;36550;50.472;19.744;2024-02-23T10:30:57;2.50;;;1.20;;
50301;SDS011;36550;50.472;19.744;2024-02-23T10:33:41;2.40;;;1.50;;
50301;SDS011;36550;50.472;19.744;2024-02-23T10:39:17;2.50;;;1.50;;
50301;SDS011;36550;50.472;19.744;2024-02-23T10:42:05;2.00;;;1.10;;
50301;SDS011;36550;50.472;19.744;2024-02-23T10:44:53;4.10;;;1.70;;
50301;SDS011;36550;50.472;19.744;2024-02-23T10:47:39;3.20;;;1.70;;
50301;SDS011;36550;50.472;19.744;2024-02-23T10:50:24;3.50;;;1.60;;
50301;SDS011;36550;50.472;19.744;2024-02-23T10:53:10;6.80;;;1.40;;
50301;SDS011;36550;50.472;19.744;2024-02-23T10:55:56;2.40;;;1.40;;
50301;SDS011;36550;50.472;19.744;2024-02-23T10:58:43;3.60;;;1.30;;
50301;SDS011;36550;50.472;19.744;2024-02-23T11:01:27;2.00;;;1.20;;
50301;SDS011;36550;50.472;19.744;2024-02-23T11:04:12;3.40;;;1.30;;
50301;SDS011;36550;50.472;19.744;2024-02-23T11:06:57;2.00;;;1.20;;
50301;SDS011;36550;50.472;19.744;2024-02-23T11:09:42;4.30;;;1.20;;
50301;SDS011;36550;50.472;19.744;2024-02-23T11:12:29;2.90;;;1.10;;
50301;SDS011;36550;50.472;19.744;2024-02-23T11:15:26;2.10;;;1.20;;
50301;SDS011;36550;50.472;19.744;2024-02-23T11:21:33;2.90;;;1.30;;
50301;SDS011;36550;50.472;19.744;2024-02-23T11:24:19;2.70;;;1.50;;
50301;SDS011;36550;50.472;19.744;2024-02-23T11:27:03;3.50;;;1.30;;
50301;SDS011;36550;50.472;19.744;2024-02-23T11:29:59;2.70;;;1.50;;
50301;SDS011;36550;50.472;19.744;2024-02-23T11:32:47;2.70;;;1.60;;
50301;SDS011;36550;50.472;19.744;2024-02-23T11:35:32;4.80;;;1.70;;
50301;SDS011;36550;50.472;19.744;2024-02-23T11:38:16;4.50;;;1.70;;
50301;SDS011;36550;50.472;19.744;2024-02-23T11:41:01;5.10;;;1.70;;
50301;SDS011;36550;50.472;19.744;2024-02-23T11:43:46;5.80;;;2.30;;
50301;SDS011;36550;50.472;19.744;2024-02-23T11:46:31;5.40;;;2.40;;
50301;SDS011;36550;50.472;19.744;2024-02-23T11:49:15;4.10;;;2.30;;
50301;SDS011;36550;50.472;19.744;2024-02-23T11:52:00;5.80;;;2.20;;
50301;SDS011;36550;50.472;19.744;2024-02-23T11:54:44;5.60;;;2.40;;
50301;SDS011;36550;50.472;19.744;2024-02-23T11:57:28;4.20;;;2.30;;
50301;SDS011;36550;50.472;19.744;2024-02-23T12:00:13;3.70;;;2.00;;
50301;SDS011;36550;50.472;19.744;2024-02-23T12:02:57;5.50;;;2.10;;
50301;SDS011;36550;50.472;19.744;2024-02-23T12:05:41;6.40;;;2.30;;
50301;SDS011;36550;50.472;19.744;2024-02-23T12:08:27;5.40;;;2.00;;
50301;SDS011;36550;50.472;19.744;2024-02-23T12:11:13;7.60;;;2.70;;
50301;SDS011;36550;50.472;19.744;2024-02-23T12:13:58;8.70;;;3.50;;
50301;SDS011;36550;50.472;19.744;2024-02-23T12:16:42;5.90;;;2.70;;
50301;SDS011;36550;50.472;19.744;2024-02-23T12:19:26;6.50;;;2.50;;
50301;SDS011;36550;50.472;19.744;2024-02-23T12:22:10;6.80;;;2.30;;
50301;SDS011;36550;50.472;19.744;2024-02-23T12:24:58;5.80;;;2.00;;
50301;SDS011;36550;50.472;19.744;2024-02-23T12:27:43;4.80;;;2.20;;
50301;SDS011;36550;50.472;19.744;2024-02-23T12:30:28;4.70;;;2.00;;
50301;SDS011;36550;50.472;19.744;2024-02-23T12:33:15;4.80;;;2.10;;
50301;SDS011;36550;50.472;19.744;2024-02-23T12:36:00;7.40;;;2.20;;
50301;SDS011;36550;50.472;19.744;2024-02-23T12:38:45;5.40;;;2.70;;
50301;SDS011;36550;50.472;19.744;2024-02-23T12:41:29;6.30;;;2.30;;
50301;SDS011;36550;50.472;19.744;2024-02-23T12:44:14;5.70;;;2.70;;
50301;SDS011;36550;50.472;19.744;2024-02-23T12:46:58;7.30;;;2.60;;
50301;SDS011;36550;50.472;19.744;2024-02-23T12:49:42;6.90;;;2.80;;
50301;SDS011;36550;50.472;19.744;2024-02-23T12:52:27;7.70;;;2.50;;
50301;SDS011;36550;50.472;19.744;2024-02-23T12:55:11;4.40;;;2.20;;
50301;SDS011;36550;50.472;19.744;2024-02-23T12:57:55;4.10;;;2.40;;
50301;SDS011;36550;50.472;19.744;2024-02-23T13:00:39;6.50;;;2.70;;
50301;SDS011;36550;50.472;19.744;2024-02-23T13:03:26;5.20;;;2.50;;
50301;SDS011;36550;50.472;19.744;2024-02-23T13:06:10;4.40;;;2.50;;
50301;SDS011;36550;50.472;19.744;2024-02-23T13:08:54;5.40;;;2.50;;
50301;SDS011;36550;50.472;19.744;2024-02-23T13:11:39;5.40;;;2.60;;
50301;SDS011;36550;50.472;19.744;2024-02-23T13:14:23;5.40;;;2.70;;
50301;SDS011;36550;50.472;19.744;2024-02-23T13:17:07;5.20;;;2.60;;
50301;SDS011;36550;50.472;19.744;2024-02-23T13:19:52;5.80;;;2.90;;
50301;SDS011;36550;50.472;19.744;2024-02-23T13:22:35;4.90;;;2.70;;
50301;SDS011;36550;50.472;19.744;2024-02-23T13:25:19;5.50;;;2.70;;
50301;SDS011;36550;50.472;19.744;2024-02-23T13:28:04;6.50;;;3.00;;
50301;SDS011;36550;50.472;19.744;2024-02-23T13:30:48;6.80;;;2.70;;
50301;SDS011;36550;50.472;19.744;2024-02-23T13:33:32;8.20;;;3.10;;
50301;SDS011;36550;50.472;19.744;2024-02-23T13:36:16;7.10;;;2.50;;
50301;SDS011;36550;50.472;19.744;2024-02-23T13:39:00;4.40;;;2.20;;
50301;SDS011;36550;50.472;19.744;2024-02-23T13:41:45;4.90;;;2.60;;
50301;SDS011;36550;50.472;19.744;2024-02-23T13:44:29;5.10;;;2.50;;
50301;SDS011;36550;50.472;19.744;2024-02-23T13:47:13;6.60;;;3.20;;
50301;SDS011;36550;50.472;19.744;2024-02-23T13:49:58;6.30;;;2.80;;
50301;SDS011;36550;50.472;19.744;2024-02-23T13:52:42;6.60;;;2.80;;
50301;SDS011;36550;50.472;19.744;2024-02-23T13:55:26;5.30;;;2.70;;
50301;SDS011;36550;50.472;19.744;2024-02-23T13:58:10;7.70;;;3.00;;
50301;SDS011;36550;50.472;19.744;2024-02-23T14:00:55;8.90;;;3.40;;
50301;SDS011;36550;50.472;19.744;2024-02-23T14:03:39;6.90;;;3.00;;
50301;SDS011;36550;50.472;19.744;2024-02-23T14:06:23;7.20;;;2.60;;
50301;SDS011;36550;50.472;19.744;2024-02-23T14:09:08;6.20;;;3.10;;
50301;SDS011;36550;50.472;19.744;2024-02-23T14:11:53;6.50;;;3.00;;
50301;SDS011;36550;50.472;19.744;2024-02-23T14:14:37;6.90;;;3.20;;
50301;SDS011;36550;50.472;19.744;2024-02-23T14:17:21;14.90;;;3.60;;
50301;SDS011;36550;50.472;19.744;2024-02-23T14:20:06;9.50;;;4.10;;
50301;SDS011;36550;50.472;19.744;2024-02-23T14:22:51;8.70;;;3.40;;
50301;SDS011;36550;50.472;19.744;2024-02-23T14:25:36;10.30;;;3.80;;
50301;SDS011;36550;50.472;19.744;2024-02-23T14:28:21;13.50;;;4.00;;
50301;SDS011;36550;50.472;19.744;2024-02-23T14:31:05;9.00;;;3.80;;
50301;SDS011;36550;50.472;19.744;2024-02-23T14:33:49;11.50;;;3.80;;
50301;SDS011;36550;50.472;19.744;2024-02-23T14:36:34;7.40;;;3.40;;
50301;SDS011;36550;50.472;19.744;2024-02-23T14:39:18;6.60;;;2.90;;
50301;SDS011;36550;50.472;19.744;2024-02-23T14:42:02;6.60;;;3.10;;
50301;SDS011;36550;50.472;19.744;2024-02-23T14:44:47;8.70;;;4.20;;
50301;SDS011;36550;50.472;19.744;2024-02-23T14:47:31;7.80;;;4.20;;
50301;SDS011;36550;50.472;19.744;2024-02-23T14:50:15;9.60;;;5.10;;
50301;SDS011;36550;50.472;19.744;2024-02-23T14:53:00;10.00;;;4.70;;
50301;SDS011;36550;50.472;19.744;2024-02-23T14:55:44;9.40;;;5.50;;
50301;SDS011;36550;50.472;19.744;2024-02-23T14:58:30;10.50;;;6.00;;
50301;SDS011;36550;50.472;19.744;2024-02-23T15:01:14;13.80;;;7.40;;
50301;SDS011;36550;50.472;19.744;2024-02-23T15:03:58;11.40;;;7.20;;
50301;SDS011;36550;50.472;19.744;2024-02-23T15:06:42;10.40;;;6.40;;
50301;SDS011;36550;50.472;19.744;2024-02-23T15:09:27;11.80;;;6.10;;
50301;SDS011;36550;50.472;19.744;2024-02-23T15:12:11;10.90;;;5.60;;
50301;SDS011;36550;50.472;19.744;2024-02-23T15:14:55;7.00;;;4.90;;
50301;SDS011;36550;50.472;19.744;2024-02-23T15:17:39;7.80;;;4.60;;
50301;SDS011;36550;50.472;19.744;2024-02-23T15:20:26;9.90;;;4.50;;
50301;SDS011;36550;50.472;19.744;2024-02-23T15:23:10;9.60;;;5.60;;
50301;SDS011;36550;50.472;19.744;2024-02-23T15:25:54;12.00;;;5.90;;
50301;SDS011;36550;50.472;19.744;2024-02-23T15:28:38;11.00;;;6.40;;
50301;SDS011;36550;50.472;19.744;2024-02-23T15:31:23;15.20;;;7.70;;
50301;SDS011;36550;50.472;19.744;2024-02-23T15:34:07;13.40;;;8.40;;
50301;SDS011;36550;50.472;19.744;2024-02-23T15:36:51;16.40;;;8.60;;
50301;SDS011;36550;50.472;19.744;2024-02-23T15:39:35;15.50;;;9.00;;
50301;SDS011;36550;50.472;19.744;2024-02-23T15:42:19;14.10;;;8.50;;
50301;SDS011;36550;50.472;19.744;2024-02-23T15:45:04;16.10;;;8.80;;
50301;SDS011;36550;50.472;19.744;2024-02-23T15:47:50;19.50;;;9.50;;
50301;SDS011;36550;50.472;19.744;2024-02-23T15:50:34;16.40;;;9.40;;
50301;SDS011;36550;50.472;19.744;2024-02-23T15:53:18;15.90;;;9.90;;
50301;SDS011;36550;50.472;19.744;2024-02-23T15:56:02;15.20;;;8.90;;
50301;SDS011;36550;50.472;19.744;2024-02-23T15:58:46;15.40;;;8.60;;
50301;SDS011;36550;50.472;19.744;2024-02-23T16:01:30;16.90;;;9.40;;
50301;SDS011;36550;50.472;19.744;2024-02-23T16:04:14;16.60;;;9.50;;
50301;SDS011;36550;50.472;19.744;2024-02-23T16:06:58;13.40;;;8.20;;
50301;SDS011;36550;50.472;19.744;2024-02-23T16:09:42;15.70;;;8.50;;
50301;SDS011;36550;50.472;19.744;2024-02-23T16:12:26;15.80;;;8.60;;
50301;SDS011;36550;50.472;19.744;2024-02-23T16:15:11;15.00;;;9.00;;
50301;SDS011;36550;50.472;19.744;2024-02-23T16:17:55;15.60;;;9.20;;
50301;SDS011;36550;50.472;19.744;2024-02-23T16:20:40;20.70;;;11.90;;
50301;SDS011;36550;50.472;19.744;2024-02-23T16:23:24;54.70;;;26.70;;
50301;SDS011;36550;50.472;19.744;2024-02-23T16:26:09;21.30;;;10.80;;
50301;SDS011;36550;50.472;19.744;2024-02-23T16:28:54;13.70;;;7.80;;
50301;SDS011;36550;50.472;19.744;2024-02-23T16:31:41;14.80;;;8.40;;
50301;SDS011;36550;50.472;19.744;2024-02-23T16:34:25;15.10;;;7.30;;
50301;SDS011;36550;50.472;19.744;2024-02-23T16:37:10;13.10;;;6.00;;